sensor_id;sensor_type;location;lat;lon;timestamp;P1;durP1;ratioP1;P2;durP2;ratioP2
72926;SDS011;61071;51.618;19.388;2022-09-09T00:00:27;17.80;;;9.00;;
72926;SDS011;61071;51.618;19.388;2022-09-09T00:14:25;16.55;;;9.25;;
72926;SDS011;61071;51.618;19.388;2022-09-09T00:22:37;13.00;;;8.07;;
72926;SDS011;61071;51.618;19.388;2022-09-09T00:25:22;17.90;;;9.32;;
72926;SDS011;61071;51.618;19.388;2022-09-09T00:27:56;18.92;;;9.70;;
72926;SDS011;61071;51.618;19.388;2022-09-09T00:30:23;19.63;;;9.40;;
72926;SDS011;61071;51.618;19.388;2022-09-09T00:32:58;19.48;;;9.40;;
72926;SDS011;61071;51.618;19.388;2022-09-09T00:38:23;15.45;;;8.90;;
72926;SDS011;61071;51.618;19.388;2022-09-09T00:41:01;18.15;;;8.75;;
72926;SDS011;61071;51.618;19.388;2022-09-09T00:55:03;15.55;;;9.32;;
72926;SDS011;61071;51.618;19.388;2022-09-09T00:57:46;16.10;;;10.15;;
72926;SDS011;61071;51.618;19.388;2022-09-09T01:00:27;17.55;;;10.40;;
72926;SDS011;61071;51.618;19.388;2022-09-09T01:08:39;20.30;;;10.63;;
72926;SDS011;61071;51.618;19.388;2022-09-09T01:11:22;21.73;;;10.18;;
72926;SDS011;61071;51.618;19.388;2022-09-09T01:13:56;15.70;;;9.63;;
72926;SDS011;61071;51.618;19.388;2022-09-09T01:16:38;21.35;;;10.50;;
72926;SDS011;61071;51.618;19.388;2022-09-09T01:19:05;15.63;;;9.30;;
72926;SDS011;61071;51.618;19.388;2022-09-09T01:24:41;17.45;;;9.55;;
72926;SDS011;61071;51.618;19.388;2022-09-09T01:27:33;16.85;;;9.55;;
72926;SDS011;61071;51.618;19.388;2022-09-09T01:30:01;16.77;;;10.70;;
72926;SDS011;61071;51.618;19.388;2022-09-09T01:38:22;20.48;;;10.35;;
72926;SDS011;61071;51.618;19.388;2022-09-09T01:40:50;13.48;;;9.32;;
72926;SDS011;61071;51.618;19.388;2022-09-09T01:43:21;16.80;;;10.27;;
72926;SDS011;61071;51.618;19.388;2022-09-09T01:45:49;17.67;;;10.85;;
72926;SDS011;61071;51.618;19.388;2022-09-09T01:48:19;20.45;;;10.93;;
72926;SDS011;61071;51.618;19.388;2022-09-09T01:50:48;18.00;;;11.20;;
72926;SDS011;61071;51.618;19.388;2022-09-09T01:53:14;16.08;;;9.80;;
72926;SDS011;61071;51.618;19.388;2022-09-09T01:55:46;18.05;;;10.02;;
72926;SDS011;61071;51.618;19.388;2022-09-09T01:58:43;16.55;;;10.38;;
72926;SDS011;61071;51.618;19.388;2022-09-09T02:01:34;18.02;;;10.70;;
72926;SDS011;61071;51.618;19.388;2022-09-09T02:07:09;19.83;;;10.57;;
72926;SDS011;61071;51.618;19.388;2022-09-09T02:09:40;23.23;;;10.88;;
72926;SDS011;61071;51.618;19.388;2022-09-09T02:12:13;16.73;;;10.50;;
72926;SDS011;61071;51.618;19.388;2022-09-09T02:14:47;21.10;;;10.52;;
72926;SDS011;61071;51.618;19.388;2022-09-09T02:17:22;16.48;;;9.82;;
72926;SDS011;61071;51.618;19.388;2022-09-09T02:20:14;15.68;;;10.18;;
72926;SDS011;61071;51.618;19.388;2022-09-09T02:22:42;18.05;;;9.90;;
72926;SDS011;61071;51.618;19.388;2022-09-09T02:25:13;15.73;;;9.57;;
72926;SDS011;61071;51.618;19.388;2022-09-09T02:27:43;16.17;;;10.32;;
72926;SDS011;61071;51.618;19.388;2022-09-09T02:30:13;21.88;;;10.25;;
72926;SDS011;61071;51.618;19.388;2022-09-09T02:32:40;14.40;;;9.77;;
72926;SDS011;61071;51.618;19.388;2022-09-09T02:35:09;18.55;;;10.63;;
72926;SDS011;61071;51.618;19.388;2022-09-09T02:37:45;18.02;;;10.85;;
72926;SDS011;61071;51.618;19.388;2022-09-09T02:40:11;19.42;;;10.50;;
72926;SDS011;61071;51.618;19.388;2022-09-09T02:42:43;17.15;;;10.93;;
72926;SDS011;61071;51.618;19.388;2022-09-09T02:45:13;19.88;;;11.68;;
72926;SDS011;61071;51.618;19.388;2022-09-09T02:50:57;21.08;;;10.18;;
72926;SDS011;61071;51.618;19.388;2022-09-09T02:54:20;24.75;;;11.50;;
72926;SDS011;61071;51.618;19.388;2022-09-09T02:56:33;16.75;;;10.63;;
72926;SDS011;61071;51.618;19.388;2022-09-09T02:59:07;20.98;;;12.27;;
72926;SDS011;61071;51.618;19.388;2022-09-09T03:01:33;20.02;;;12.18;;
72926;SDS011;61071;51.618;19.388;2022-09-09T03:04:00;21.50;;;11.18;;
72926;SDS011;61071;51.618;19.388;2022-09-09T03:06:30;21.52;;;12.50;;
72926;SDS011;61071;51.618;19.388;2022-09-09T03:08:56;21.67;;;13.77;;
72926;SDS011;61071;51.618;19.388;2022-09-09T03:11:25;21.05;;;12.43;;
72926;SDS011;61071;51.618;19.388;2022-09-09T03:13:52;26.77;;;15.45;;
72926;SDS011;61071;51.618;19.388;2022-09-09T03:16:21;29.05;;;14.40;;
72926;SDS011;61071;51.618;19.388;2022-09-09T03:18:48;24.58;;;13.90;;
72926;SDS011;61071;51.618;19.388;2022-09-09T03:21:14;27.17;;;15.35;;
72926;SDS011;61071;51.618;19.388;2022-09-09T03:23:40;32.75;;;15.20;;
72926;SDS011;61071;51.618;19.388;2022-09-09T03:26:06;22.95;;;14.07;;
72926;SDS011;61071;51.618;19.388;2022-09-09T03:28:33;34.17;;;16.60;;
72926;SDS011;61071;51.618;19.388;2022-09-09T03:31:03;35.20;;;15.48;;
72926;SDS011;61071;51.618;19.388;2022-09-09T03:35:56;35.42;;;15.52;;
72926;SDS011;61071;51.618;19.388;2022-09-09T03:38:23;31.17;;;15.52;;
72926;SDS011;61071;51.618;19.388;2022-09-09T03:40:53;30.15;;;16.40;;
72926;SDS011;61071;51.618;19.388;2022-09-09T03:43:22;45.03;;;18.13;;
72926;SDS011;61071;51.618;19.388;2022-09-09T03:45:50;34.40;;;16.10;;
72926;SDS011;61071;51.618;19.388;2022-09-09T03:48:17;41.67;;;16.65;;
72926;SDS011;61071;51.618;19.388;2022-09-09T03:50:47;73.43;;;22.38;;
72926;SDS011;61071;51.618;19.388;2022-09-09T03:53:17;57.88;;;18.45;;
72926;SDS011;61071;51.618;19.388;2022-09-09T03:55:45;82.38;;;19.92;;
72926;SDS011;61071;51.618;19.388;2022-09-09T03:58:14;60.75;;;16.77;;
72926;SDS011;61071;51.618;19.388;2022-09-09T04:00:40;65.97;;;19.02;;
72926;SDS011;61071;51.618;19.388;2022-09-09T04:03:10;75.65;;;20.65;;
72926;SDS011;61071;51.618;19.388;2022-09-09T04:05:36;76.70;;;18.77;;
72926;SDS011;61071;51.618;19.388;2022-09-09T04:08:07;63.05;;;18.33;;
72926;SDS011;61071;51.618;19.388;2022-09-09T04:10:33;75.20;;;21.95;;
72926;SDS011;61071;51.618;19.388;2022-09-09T04:13:03;69.55;;;17.58;;
72926;SDS011;61071;51.618;19.388;2022-09-09T04:15:30;161.93;;;26.83;;
72926;SDS011;61071;51.618;19.388;2022-09-09T04:17:56;167.32;;;27.92;;
72926;SDS011;61071;51.618;19.388;2022-09-09T04:20:22;90.93;;;22.30;;
72926;SDS011;61071;51.618;19.388;2022-09-09T04:22:48;126.85;;;24.88;;
72926;SDS011;61071;51.618;19.388;2022-09-09T04:25:14;101.00;;;22.10;;
72926;SDS011;61071;51.618;19.388;2022-09-09T04:27:40;134.18;;;25.58;;
72926;SDS011;61071;51.618;19.388;2022-09-09T04:30:06;107.10;;;25.85;;
72926;SDS011;61071;51.618;19.388;2022-09-09T04:32:33;118.78;;;25.95;;
72926;SDS011;61071;51.618;19.388;2022-09-09T04:35:00;187.23;;;32.30;;
72926;SDS011;61071;51.618;19.388;2022-09-09T04:37:26;135.32;;;30.42;;
72926;SDS011;61071;51.618;19.388;2022-09-09T04:39:52;123.90;;;29.48;;
72926;SDS011;61071;51.618;19.388;2022-09-09T04:42:17;89.10;;;24.50;;
72926;SDS011;61071;51.618;19.388;2022-09-09T04:44:44;94.57;;;24.48;;
72926;SDS011;61071;51.618;19.388;2022-09-09T04:47:10;140.30;;;29.98;;
72926;SDS011;61071;51.618;19.388;2022-09-09T04:49:36;106.03;;;26.92;;
72926;SDS011;61071;51.618;19.388;2022-09-09T04:52:03;111.50;;;27.35;;
72926;SDS011;61071;51.618;19.388;2022-09-09T04:54:29;113.15;;;22.25;;
72926;SDS011;61071;51.618;19.388;2022-09-09T04:56:55;146.15;;;30.40;;
72926;SDS011;61071;51.618;19.388;2022-09-09T04:59:21;148.80;;;25.92;;
72926;SDS011;61071;51.618;19.388;2022-09-09T05:01:47;165.13;;;31.58;;
72926;SDS011;61071;51.618;19.388;2022-09-09T05:04:15;174.23;;;30.05;;
72926;SDS011;61071;51.618;19.388;2022-09-09T05:06:41;191.90;;;32.85;;
72926;SDS011;61071;51.618;19.388;2022-09-09T05:09:07;154.70;;;30.02;;
72926;SDS011;61071;51.618;19.388;2022-09-09T05:11:34;133.63;;;30.67;;
72926;SDS011;61071;51.618;19.388;2022-09-09T05:14:03;122.82;;;30.63;;
72926;SDS011;61071;51.618;19.388;2022-09-09T05:16:29;141.52;;;30.50;;
72926;SDS011;61071;51.618;19.388;2022-09-09T05:18:56;161.60;;;34.53;;
72926;SDS011;61071;51.618;19.388;2022-09-09T05:21:23;99.55;;;25.40;;
72926;SDS011;61071;51.618;19.388;2022-09-09T05:23:53;108.60;;;26.70;;
72926;SDS011;61071;51.618;19.388;2022-09-09T05:26:19;132.40;;;28.70;;
72926;SDS011;61071;51.618;19.388;2022-09-09T05:28:47;76.63;;;24.13;;
72926;SDS011;61071;51.618;19.388;2022-09-09T05:31:14;99.28;;;27.55;;
72926;SDS011;61071;51.618;19.388;2022-09-09T05:33:42;76.32;;;25.15;;
72926;SDS011;61071;51.618;19.388;2022-09-09T05:36:14;91.35;;;26.30;;
72926;SDS011;61071;51.618;19.388;2022-09-09T05:38:46;83.43;;;25.80;;
72926;SDS011;61071;51.618;19.388;2022-09-09T05:41:12;64.35;;;26.25;;
72926;SDS011;61071;51.618;19.388;2022-09-09T05:43:43;51.40;;;23.92;;
72926;SDS011;61071;51.618;19.388;2022-09-09T05:46:10;61.22;;;26.05;;
72926;SDS011;61071;51.618;19.388;2022-09-09T05:48:42;79.43;;;28.35;;
72926;SDS011;61071;51.618;19.388;2022-09-09T05:51:14;66.05;;;28.05;;
72926;SDS011;61071;51.618;19.388;2022-09-09T05:53:42;49.65;;;25.42;;
72926;SDS011;61071;51.618;19.388;2022-09-09T05:56:11;45.88;;;24.88;;
72926;SDS011;61071;51.618;19.388;2022-09-09T05:58:43;41.13;;;22.83;;
72926;SDS011;61071;51.618;19.388;2022-09-09T06:01:14;38.70;;;23.95;;
72926;SDS011;61071;51.618;19.388;2022-09-09T06:03:45;31.88;;;20.02;;
72926;SDS011;61071;51.618;19.388;2022-09-09T06:06:13;34.38;;;22.70;;
72926;SDS011;61071;51.618;19.388;2022-09-09T06:08:48;29.13;;;20.05;;
72926;SDS011;61071;51.618;19.388;2022-09-09T06:11:18;35.30;;;21.45;;
72926;SDS011;61071;51.618;19.388;2022-09-09T06:13:47;27.65;;;19.90;;
72926;SDS011;61071;51.618;19.388;2022-09-09T06:16:16;23.98;;;18.92;;
72926;SDS011;61071;51.618;19.388;2022-09-09T06:18:44;26.73;;;19.15;;
72926;SDS011;61071;51.618;19.388;2022-09-09T06:21:17;24.42;;;18.00;;
72926;SDS011;61071;51.618;19.388;2022-09-09T06:23:46;21.58;;;16.92;;
72926;SDS011;61071;51.618;19.388;2022-09-09T06:28:44;19.33;;;16.05;;
72926;SDS011;61071;51.618;19.388;2022-09-09T06:31:16;26.30;;;16.50;;
72926;SDS011;61071;51.618;19.388;2022-09-09T06:33:46;22.05;;;16.63;;
72926;SDS011;61071;51.618;19.388;2022-09-09T06:36:24;21.58;;;17.08;;
72926;SDS011;61071;51.618;19.388;2022-09-09T06:38:52;18.98;;;16.80;;
72926;SDS011;61071;51.618;19.388;2022-09-09T06:41:20;22.25;;;16.67;;
72926;SDS011;61071;51.618;19.388;2022-09-09T06:43:48;23.02;;;17.00;;
72926;SDS011;61071;51.618;19.388;2022-09-09T06:46:15;18.52;;;16.23;;
72926;SDS011;61071;51.618;19.388;2022-09-09T06:48:46;19.45;;;16.63;;
72926;SDS011;61071;51.618;19.388;2022-09-09T06:51:14;18.92;;;15.40;;
72926;SDS011;61071;51.618;19.388;2022-09-09T06:53:50;17.33;;;14.70;;
72926;SDS011;61071;51.618;19.388;2022-09-09T06:56:21;15.10;;;13.27;;
72926;SDS011;61071;51.618;19.388;2022-09-09T06:58:51;15.77;;;12.55;;
72926;SDS011;61071;51.618;19.388;2022-09-09T07:01:18;14.07;;;12.57;;
72926;SDS011;61071;51.618;19.388;2022-09-09T07:03:48;14.63;;;12.07;;
72926;SDS011;61071;51.618;19.388;2022-09-09T07:06:26;14.95;;;12.85;;
72926;SDS011;61071;51.618;19.388;2022-09-09T07:08:56;12.52;;;11.23;;
72926;SDS011;61071;51.618;19.388;2022-09-09T07:11:25;14.82;;;11.85;;
72926;SDS011;61071;51.618;19.388;2022-09-09T07:13:54;14.18;;;10.45;;
72926;SDS011;61071;51.618;19.388;2022-09-09T07:16:23;16.33;;;11.35;;
72926;SDS011;61071;51.618;19.388;2022-09-09T07:18:49;11.55;;;9.77;;
72926;SDS011;61071;51.618;19.388;2022-09-09T07:21:16;14.00;;;9.43;;
72926;SDS011;61071;51.618;19.388;2022-09-09T07:23:43;13.73;;;8.68;;
72926;SDS011;61071;51.618;19.388;2022-09-09T07:26:11;12.15;;;9.32;;
72926;SDS011;61071;51.618;19.388;2022-09-09T07:28:44;11.23;;;8.88;;
72926;SDS011;61071;51.618;19.388;2022-09-09T07:31:15;11.25;;;9.13;;
72926;SDS011;61071;51.618;19.388;2022-09-09T07:33:44;10.68;;;8.07;;
72926;SDS011;61071;51.618;19.388;2022-09-09T07:36:14;10.48;;;7.93;;
72926;SDS011;61071;51.618;19.388;2022-09-09T07:38:50;9.30;;;8.30;;
72926;SDS011;61071;51.618;19.388;2022-09-09T07:41:23;13.50;;;8.27;;
72926;SDS011;61071;51.618;19.388;2022-09-09T07:43:53;12.05;;;9.23;;
72926;SDS011;61071;51.618;19.388;2022-09-09T07:46:20;11.40;;;10.13;;
72926;SDS011;61071;51.618;19.388;2022-09-09T07:48:52;11.00;;;9.80;;
72926;SDS011;61071;51.618;19.388;2022-09-09T07:51:25;10.35;;;8.52;;
72926;SDS011;61071;51.618;19.388;2022-09-09T07:54:01;16.48;;;9.68;;
72926;SDS011;61071;51.618;19.388;2022-09-09T07:56:30;10.77;;;8.70;;
72926;SDS011;61071;51.618;19.388;2022-09-09T07:58:57;10.75;;;8.25;;
72926;SDS011;61071;51.618;19.388;2022-09-09T08:01:28;9.23;;;8.23;;
72926;SDS011;61071;51.618;19.388;2022-09-09T08:04:23;10.05;;;7.63;;
72926;SDS011;61071;51.618;19.388;2022-09-09T08:06:58;9.73;;;8.18;;
72926;SDS011;61071;51.618;19.388;2022-09-09T08:09:26;10.27;;;9.00;;
72926;SDS011;61071;51.618;19.388;2022-09-09T08:14:23;10.98;;;9.55;;
72926;SDS011;61071;51.618;19.388;2022-09-09T08:16:49;11.00;;;9.75;;
72926;SDS011;61071;51.618;19.388;2022-09-09T08:19:16;8.98;;;7.13;;
72926;SDS011;61071;51.618;19.388;2022-09-09T08:21:42;10.05;;;8.98;;
72926;SDS011;61071;51.618;19.388;2022-09-09T08:24:10;11.52;;;8.65;;
72926;SDS011;61071;51.618;19.388;2022-09-09T08:26:40;10.10;;;9.10;;
72926;SDS011;61071;51.618;19.388;2022-09-09T08:29:12;9.20;;;8.10;;
72926;SDS011;61071;51.618;19.388;2022-09-09T08:31:43;10.38;;;7.25;;
72926;SDS011;61071;51.618;19.388;2022-09-09T08:34:12;8.45;;;7.55;;
72926;SDS011;61071;51.618;19.388;2022-09-09T08:36:48;7.45;;;6.68;;
72926;SDS011;61071;51.618;19.388;2022-09-09T08:39:16;8.43;;;6.18;;
72926;SDS011;61071;51.618;19.388;2022-09-09T08:45:19;10.20;;;8.00;;
72926;SDS011;61071;51.618;19.388;2022-09-09T08:48:07;6.78;;;5.60;;
72926;SDS011;61071;51.618;19.388;2022-09-09T08:51:02;5.80;;;4.43;;
72926;SDS011;61071;51.618;19.388;2022-09-09T08:53:42;5.70;;;4.90;;
72926;SDS011;61071;51.618;19.388;2022-09-09T08:56:14;8.57;;;5.32;;
72926;SDS011;61071;51.618;19.388;2022-09-09T08:58:50;7.32;;;6.45;;
72926;SDS011;61071;51.618;19.388;2022-09-09T09:13:06;8.27;;;5.57;;
72926;SDS011;61071;51.618;19.388;2022-09-09T09:16:19;6.00;;;5.25;;
72926;SDS011;61071;51.618;19.388;2022-09-09T09:18:57;5.25;;;4.60;;
72926;SDS011;61071;51.618;19.388;2022-09-09T09:21:39;6.97;;;4.97;;
72926;SDS011;61071;51.618;19.388;2022-09-09T09:24:17;5.88;;;4.43;;
72926;SDS011;61071;51.618;19.388;2022-09-09T09:26:57;5.93;;;4.22;;
72926;SDS011;61071;51.618;19.388;2022-09-09T09:29:32;5.97;;;3.70;;
72926;SDS011;61071;51.618;19.388;2022-09-09T09:32:00;4.70;;;3.67;;
72926;SDS011;61071;51.618;19.388;2022-09-09T09:34:28;5.53;;;4.10;;
72926;SDS011;61071;51.618;19.388;2022-09-09T09:36:57;5.25;;;4.50;;
72926;SDS011;61071;51.618;19.388;2022-09-09T09:39:31;5.18;;;3.90;;
72926;SDS011;61071;51.618;19.388;2022-09-09T09:42:09;5.43;;;4.03;;
72926;SDS011;61071;51.618;19.388;2022-09-09T09:44:40;4.03;;;3.40;;
72926;SDS011;61071;51.618;19.388;2022-09-09T09:47:13;3.83;;;3.25;;
72926;SDS011;61071;51.618;19.388;2022-09-09T09:49:56;4.65;;;3.28;;
72926;SDS011;61071;51.618;19.388;2022-09-09T09:52:28;4.97;;;2.83;;
72926;SDS011;61071;51.618;19.388;2022-09-09T09:54:57;6.45;;;3.50;;
72926;SDS011;61071;51.618;19.388;2022-09-09T09:57:28;6.30;;;2.90;;
72926;SDS011;61071;51.618;19.388;2022-09-09T10:02:42;8.05;;;2.88;;
72926;SDS011;61071;51.618;19.388;2022-09-09T10:05:17;3.58;;;2.78;;
72926;SDS011;61071;51.618;19.388;2022-09-09T10:10:51;7.35;;;2.58;;
72926;SDS011;61071;51.618;19.388;2022-09-09T10:16:07;7.15;;;2.63;;
72926;SDS011;61071;51.618;19.388;2022-09-09T10:18:53;4.00;;;2.58;;
72926;SDS011;61071;51.618;19.388;2022-09-09T10:43:32;5.78;;;3.20;;
72926;SDS011;61071;51.618;19.388;2022-09-09T10:46:16;4.25;;;3.58;;
72926;SDS011;61071;51.618;19.388;2022-09-09T10:49:15;4.40;;;3.40;;
72926;SDS011;61071;51.618;19.388;2022-09-09T10:54:58;4.90;;;4.40;;
72926;SDS011;61071;51.618;19.388;2022-09-09T10:57:47;6.90;;;3.47;;
72926;SDS011;61071;51.618;19.388;2022-09-09T11:02:50;4.65;;;4.07;;
72926;SDS011;61071;51.618;19.388;2022-09-09T11:05:49;6.20;;;4.20;;
72926;SDS011;61071;51.618;19.388;2022-09-09T11:08:22;6.70;;;4.32;;
72926;SDS011;61071;51.618;19.388;2022-09-09T11:13:57;8.32;;;3.90;;
72926;SDS011;61071;51.618;19.388;2022-09-09T11:17:12;7.22;;;4.35;;
72926;SDS011;61071;51.618;19.388;2022-09-09T11:19:52;7.18;;;4.35;;
72926;SDS011;61071;51.618;19.388;2022-09-09T11:28:16;6.15;;;4.82;;
72926;SDS011;61071;51.618;19.388;2022-09-09T11:31:05;6.70;;;4.40;;
72926;SDS011;61071;51.618;19.388;2022-09-09T11:42:45;7.00;;;3.80;;
72926;SDS011;61071;51.618;19.388;2022-09-09T11:47:56;9.60;;;4.43;;
72926;SDS011;61071;51.618;19.388;2022-09-09T11:50:27;4.82;;;3.90;;
72926;SDS011;61071;51.618;19.388;2022-09-09T11:55:48;5.95;;;3.97;;
72926;SDS011;61071;51.618;19.388;2022-09-09T11:58:27;6.97;;;4.45;;
72926;SDS011;61071;51.618;19.388;2022-09-09T12:01:25;6.20;;;4.75;;
72926;SDS011;61071;51.618;19.388;2022-09-09T12:04:04;5.78;;;4.13;;
72926;SDS011;61071;51.618;19.388;2022-09-09T12:06:41;5.88;;;4.15;;
72926;SDS011;61071;51.618;19.388;2022-09-09T12:17:23;5.03;;;3.42;;
72926;SDS011;61071;51.618;19.388;2022-09-09T12:20:03;4.55;;;3.05;;
72926;SDS011;61071;51.618;19.388;2022-09-09T12:32:11;5.93;;;3.92;;
72926;SDS011;61071;51.618;19.388;2022-09-09T12:34:44;7.68;;;4.15;;
72926;SDS011;61071;51.618;19.388;2022-09-09T12:37:42;4.53;;;3.50;;
72926;SDS011;61071;51.618;19.388;2022-09-09T12:42:57;6.47;;;4.20;;
72926;SDS011;61071;51.618;19.388;2022-09-09T12:45:27;5.43;;;3.85;;
72926;SDS011;61071;51.618;19.388;2022-09-09T12:47:57;6.90;;;3.80;;
72926;SDS011;61071;51.618;19.388;2022-09-09T12:50:31;5.80;;;4.18;;
72926;SDS011;61071;51.618;19.388;2022-09-09T12:53:02;4.33;;;3.90;;
72926;SDS011;61071;51.618;19.388;2022-09-09T12:55:38;4.70;;;3.50;;
72926;SDS011;61071;51.618;19.388;2022-09-09T12:58:04;4.03;;;3.30;;
72926;SDS011;61071;51.618;19.388;2022-09-09T13:00:32;5.47;;;3.83;;
72926;SDS011;61071;51.618;19.388;2022-09-09T13:03:13;4.80;;;3.78;;
72926;SDS011;61071;51.618;19.388;2022-09-09T13:05:42;5.20;;;3.85;;
72926;SDS011;61071;51.618;19.388;2022-09-09T13:08:09;4.57;;;3.35;;
72926;SDS011;61071;51.618;19.388;2022-09-09T13:10:43;4.00;;;3.60;;
72926;SDS011;61071;51.618;19.388;2022-09-09T13:13:39;4.30;;;3.60;;
72926;SDS011;61071;51.618;19.388;2022-09-09T13:16:07;4.95;;;3.67;;
72926;SDS011;61071;51.618;19.388;2022-09-09T13:18:47;4.28;;;3.50;;
72926;SDS011;61071;51.618;19.388;2022-09-09T13:21:14;5.63;;;3.88;;
72926;SDS011;61071;51.618;19.388;2022-09-09T13:23:40;4.90;;;3.00;;
72926;SDS011;61071;51.618;19.388;2022-09-09T13:26:19;5.25;;;3.03;;
72926;SDS011;61071;51.618;19.388;2022-09-09T13:28:47;4.38;;;2.70;;
72926;SDS011;61071;51.618;19.388;2022-09-09T13:34:12;4.97;;;3.17;;
72926;SDS011;61071;51.618;19.388;2022-09-09T13:36:52;5.10;;;3.40;;
72926;SDS011;61071;51.618;19.388;2022-09-09T13:39:27;4.80;;;3.15;;
72926;SDS011;61071;51.618;19.388;2022-09-09T13:41:54;3.58;;;2.90;;
72926;SDS011;61071;51.618;19.388;2022-09-09T13:44:21;5.32;;;3.03;;
72926;SDS011;61071;51.618;19.388;2022-09-09T13:49:51;3.85;;;2.92;;
72926;SDS011;61071;51.618;19.388;2022-09-09T13:52:18;4.15;;;2.55;;
72926;SDS011;61071;51.618;19.388;2022-09-09T13:54:47;3.85;;;2.85;;
72926;SDS011;61071;51.618;19.388;2022-09-09T13:57:16;6.25;;;3.28;;
72926;SDS011;61071;51.618;19.388;2022-09-09T13:59:47;5.35;;;3.05;;
72926;SDS011;61071;51.618;19.388;2022-09-09T14:02:14;3.38;;;2.50;;
72926;SDS011;61071;51.618;19.388;2022-09-09T14:04:42;6.70;;;2.53;;
72926;SDS011;61071;51.618;19.388;2022-09-09T14:07:15;5.45;;;2.63;;
72926;SDS011;61071;51.618;19.388;2022-09-09T14:09:43;5.63;;;2.60;;
72926;SDS011;61071;51.618;19.388;2022-09-09T14:12:13;3.78;;;2.50;;
72926;SDS011;61071;51.618;19.388;2022-09-09T14:14:40;3.53;;;2.67;;
72926;SDS011;61071;51.618;19.388;2022-09-09T14:17:08;2.78;;;2.35;;
72926;SDS011;61071;51.618;19.388;2022-09-09T14:19:34;3.08;;;2.45;;
72926;SDS011;61071;51.618;19.388;2022-09-09T14:22:00;4.60;;;2.28;;
72926;SDS011;61071;51.618;19.388;2022-09-09T14:24:26;3.65;;;2.67;;
72926;SDS011;61071;51.618;19.388;2022-09-09T14:26:52;2.92;;;2.35;;
72926;SDS011;61071;51.618;19.388;2022-09-09T14:29:19;3.92;;;2.13;;
72926;SDS011;61071;51.618;19.388;2022-09-09T14:31:45;3.38;;;2.28;;
72926;SDS011;61071;51.618;19.388;2022-09-09T14:34:11;6.00;;;2.50;;
72926;SDS011;61071;51.618;19.388;2022-09-09T14:36:39;6.32;;;2.60;;
72926;SDS011;61071;51.618;19.388;2022-09-09T14:39:06;3.92;;;2.58;;
72926;SDS011;61071;51.618;19.388;2022-09-09T14:41:32;3.83;;;2.70;;
72926;SDS011;61071;51.618;19.388;2022-09-09T14:43:58;4.70;;;2.80;;
72926;SDS011;61071;51.618;19.388;2022-09-09T14:46:24;4.45;;;2.72;;
72926;SDS011;61071;51.618;19.388;2022-09-09T14:48:51;5.60;;;2.60;;
72926;SDS011;61071;51.618;19.388;2022-09-09T14:51:19;9.90;;;2.83;;
72926;SDS011;61071;51.618;19.388;2022-09-09T14:53:48;7.22;;;2.88;;
72926;SDS011;61071;51.618;19.388;2022-09-09T14:56:18;3.17;;;2.43;;
72926;SDS011;61071;51.618;19.388;2022-09-09T14:58:48;3.15;;;2.40;;
72926;SDS011;61071;51.618;19.388;2022-09-09T15:01:15;3.00;;;2.22;;
72926;SDS011;61071;51.618;19.388;2022-09-09T15:03:57;5.65;;;2.58;;
72926;SDS011;61071;51.618;19.388;2022-09-09T15:06:30;5.80;;;2.60;;
72926;SDS011;61071;51.618;19.388;2022-09-09T15:08:59;4.05;;;2.30;;
72926;SDS011;61071;51.618;19.388;2022-09-09T15:11:26;5.50;;;3.03;;
72926;SDS011;61071;51.618;19.388;2022-09-09T15:14:02;2.97;;;2.47;;
72926;SDS011;61071;51.618;19.388;2022-09-09T15:16:29;5.95;;;2.85;;
72926;SDS011;61071;51.618;19.388;2022-09-09T15:18:57;3.00;;;2.67;;
72926;SDS011;61071;51.618;19.388;2022-09-09T15:21:27;5.50;;;3.40;;
72926;SDS011;61071;51.618;19.388;2022-09-09T15:23:58;4.40;;;2.97;;
72926;SDS011;61071;51.618;19.388;2022-09-09T15:26:25;3.53;;;2.80;;
72926;SDS011;61071;51.618;19.388;2022-09-09T15:28:52;4.60;;;2.83;;
72926;SDS011;61071;51.618;19.388;2022-09-09T15:31:20;4.13;;;3.40;;
72926;SDS011;61071;51.618;19.388;2022-09-09T15:36:26;6.28;;;3.60;;
72926;SDS011;61071;51.618;19.388;2022-09-09T15:39:04;6.85;;;3.40;;
72926;SDS011;61071;51.618;19.388;2022-09-09T15:41:37;5.63;;;4.00;;
72926;SDS011;61071;51.618;19.388;2022-09-09T15:44:04;7.68;;;3.80;;
72926;SDS011;61071;51.618;19.388;2022-09-09T15:46:32;5.15;;;3.55;;
72926;SDS011;61071;51.618;19.388;2022-09-09T15:49:10;4.60;;;3.70;;
72926;SDS011;61071;51.618;19.388;2022-09-09T15:51:51;6.82;;;3.95;;
72926;SDS011;61071;51.618;19.388;2022-09-09T15:54:21;8.82;;;3.70;;
72926;SDS011;61071;51.618;19.388;2022-09-09T15:56:53;8.07;;;3.58;;
72926;SDS011;61071;51.618;19.388;2022-09-09T15:59:26;6.43;;;3.75;;
72926;SDS011;61071;51.618;19.388;2022-09-09T16:01:54;7.07;;;3.75;;
72926;SDS011;61071;51.618;19.388;2022-09-09T16:04:22;4.18;;;3.50;;
72926;SDS011;61071;51.618;19.388;2022-09-09T16:06:53;5.28;;;3.35;;
72926;SDS011;61071;51.618;19.388;2022-09-09T16:09:38;6.25;;;3.92;;
72926;SDS011;61071;51.618;19.388;2022-09-09T16:12:04;5.80;;;3.90;;
72926;SDS011;61071;51.618;19.388;2022-09-09T16:14:38;5.55;;;3.80;;
72926;SDS011;61071;51.618;19.388;2022-09-09T16:17:04;4.78;;;3.85;;
72926;SDS011;61071;51.618;19.388;2022-09-09T16:19:31;6.05;;;3.60;;
72926;SDS011;61071;51.618;19.388;2022-09-09T16:21:59;6.63;;;4.20;;
72926;SDS011;61071;51.618;19.388;2022-09-09T16:24:25;11.65;;;7.43;;
72926;SDS011;61071;51.618;19.388;2022-09-09T16:26:52;36.67;;;21.48;;
72926;SDS011;61071;51.618;19.388;2022-09-09T16:29:19;43.35;;;27.08;;
72926;SDS011;61071;51.618;19.388;2022-09-09T16:31:47;35.50;;;22.65;;
72926;SDS011;61071;51.618;19.388;2022-09-09T16:34:15;25.27;;;17.13;;
72926;SDS011;61071;51.618;19.388;2022-09-09T16:36:42;23.40;;;14.55;;
72926;SDS011;61071;51.618;19.388;2022-09-09T16:39:10;17.00;;;11.95;;
72926;SDS011;61071;51.618;19.388;2022-09-09T16:41:40;11.45;;;8.35;;
72926;SDS011;61071;51.618;19.388;2022-09-09T16:44:09;13.27;;;7.93;;
72926;SDS011;61071;51.618;19.388;2022-09-09T16:46:38;12.02;;;7.60;;
72926;SDS011;61071;51.618;19.388;2022-09-09T16:49:07;8.55;;;6.65;;
72926;SDS011;61071;51.618;19.388;2022-09-09T16:51:42;11.90;;;5.97;;
72926;SDS011;61071;51.618;19.388;2022-09-09T16:54:12;10.98;;;6.15;;
72926;SDS011;61071;51.618;19.388;2022-09-09T16:56:40;9.32;;;6.00;;
72926;SDS011;61071;51.618;19.388;2022-09-09T16:59:09;8.48;;;5.95;;
72926;SDS011;61071;51.618;19.388;2022-09-09T17:01:46;8.35;;;6.00;;
72926;SDS011;61071;51.618;19.388;2022-09-09T17:04:17;9.30;;;6.43;;
72926;SDS011;61071;51.618;19.388;2022-09-09T17:06:46;7.82;;;6.30;;
72926;SDS011;61071;51.618;19.388;2022-09-09T17:09:14;10.23;;;7.22;;
72926;SDS011;61071;51.618;19.388;2022-09-09T17:11:40;7.97;;;6.88;;
72926;SDS011;61071;51.618;19.388;2022-09-09T17:14:07;10.13;;;7.63;;
72926;SDS011;61071;51.618;19.388;2022-09-09T17:16:38;11.85;;;8.50;;
72926;SDS011;61071;51.618;19.388;2022-09-09T17:19:05;9.98;;;7.70;;
72926;SDS011;61071;51.618;19.388;2022-09-09T17:21:32;9.52;;;7.32;;
72926;SDS011;61071;51.618;19.388;2022-09-09T17:23:58;9.70;;;7.97;;
72926;SDS011;61071;51.618;19.388;2022-09-09T17:26:26;10.00;;;7.75;;
72926;SDS011;61071;51.618;19.388;2022-09-09T17:28:55;10.90;;;8.18;;